Time;durP1;ratioP1;P1;durP2;ratioP2;P2;SDS_P1;SDS_P2;PMS_P1;PMS_P2;Temp;Humidity;BMP_temperature;BMP_pressure;BME280_temperature;BME280_humidity;BME280_pressure;Samples;Min_cycle;Max_cycle;Signal;HPM_P1;HPM_P2
2021/10/22 00:00:16;;;;;;;6.22;1.77;;;;;;;7.74;100.00;95639.84;1035073;28;20100;-72
2021/10/22 00:00:46;;;;;;;6.32;1.55;;;;;;;7.74;100.00;95638.00;1039404;28;20040;-72
2021/10/22 00:01:17;;;;;;;4.78;1.60;;;;;;;7.75;100.00;95644.03;1030937;28;20261;-71
2021/10/22 00:01:47;;;;;;;5.88;1.45;;;;;;;7.79;100.00;95642.50;1027315;28;20115;-71
2021/10/22 00:02:18;;;;;;;6.88;1.83;;;;;;;7.76;100.00;95641.16;1027216;28;20023;-72
2021/10/22 00:02:48;;;;;;;4.28;1.85;;;;;;;7.70;100.00;95630.91;1025361;28;20522;-71
2021/10/22 00:03:19;;;;;;;4.72;2.05;;;;;;;7.76;100.00;95645.59;1027088;28;20489;-71
2021/10/22 00:03:49;;;;;;;5.80;2.10;;;;;;;7.74;100.00;95638.00;1031320;28;20022;-71
2021/10/22 00:04:20;;;;;;;2.88;1.40;;;;;;;7.73;100.00;95641.66;1031208;28;20030;-70
2021/10/22 00:04:51;;;;;;;6.55;1.80;;;;;;;7.77;100.00;95655.00;1035576;28;20025;-71
2021/10/22 00:05:21;;;;;;;5.45;1.88;;;;;;;7.76;100.00;95643.00;1035149;28;20041;-71
2021/10/22 00:05:52;;;;;;;7.05;1.73;;;;;;;7.74;100.00;95640.63;1039563;28;20268;-72
2021/10/22 00:06:22;;;;;;;6.43;1.85;;;;;;;7.73;100.00;95646.88;1039211;28;20029;-70
2021/10/22 00:06:53;;;;;;;7.88;1.50;;;;;;;7.73;100.00;95644.28;1035446;28;20025;-70
2021/10/22 00:07:23;;;;;;;6.20;1.50;;;;;;;7.75;100.00;95650.03;1031016;28;20076;-71
2021/10/22 00:07:54;;;;;;;4.43;1.67;;;;;;;7.75;100.00;95644.03;1030634;28;20643;-71
2021/10/22 00:08:27;;;;;;;4.10;1.45;;;;;;;7.63;100.00;95635.56;1031129;28;20506;-71
2021/10/22 00:08:57;;;;;;;7.70;2.10;;;;;;;7.71;100.00;95648.97;1036303;28;20489;-71
2021/10/22 00:09:27;;;;;;;3.47;1.33;;;;;;;7.70;100.00;95649.97;1043103;28;20279;-71
2021/10/22 00:09:58;;;;;;;5.57;1.90;;;;;;;7.69;100.00;95655.47;1039305;28;20040;-71
2021/10/22 00:10:28;;;;;;;3.67;1.58;;;;;;;7.70;100.00;95647.38;1035678;28;20021;-71
2021/10/22 00:10:59;;;;;;;3.58;1.30;;;;;;;7.70;100.00;95652.59;1039098;28;20075;-70
2021/10/22 00:11:29;;;;;;;7.53;2.22;;;;;;;7.66;100.00;95645.50;1038550;28;20034;-71
2021/10/22 00:12:00;;;;;;;3.30;1.20;;;;;;;7.70;100.00;95659.66;1030681;28;20082;-70
2021/10/22 00:12:30;;;;;;;8.48;1.70;;;;;;;7.68;100.00;95657.28;1026997;28;20043;-71
2021/10/22 00:13:01;;;;;;;5.72;1.40;;;;;;;7.66;100.00;95659.34;1031100;28;20045;-70
2021/10/22 00:13:31;;;;;;;3.20;1.33;;;;;;;7.65;100.00;95652.56;1030891;28;20030;-71
2021/10/22 00:14:02;;;;;;;6.47;2.03;;;;;;;7.60;100.00;95642.06;1027047;28;20045;-71
2021/10/22 00:14:32;;;;;;;3.38;1.33;;;;;;;7.66;100.00;95654.13;1031210;28;20381;-71
2021/10/22 00:15:03;;;;;;;4.72;1.90;;;;;;;7.64;100.00;95650.97;1034993;28;20030;-71
2021/10/22 00:15:33;;;;;;;6.97;1.40;;;;;;;7.63;100.00;95646.78;1031208;28;20026;-71
2021/10/22 00:16:04;;;;;;;7.05;1.80;;;;;;;7.63;100.00;95659.06;1031097;28;20045;-70
2021/10/22 00:16:34;;;;;;;2.38;1.13;;;;;;;7.62;100.00;95655.66;1035261;28;20137;-71
2021/10/22 00:17:05;;;;;;;4.85;1.48;;;;;;;7.53;100.00;95646.69;1039107;28;20030;-71
2021/10/22 00:17:37;;;;;;;5.75;1.73;;;;;;;7.50;100.00;95644.56;1035197;28;20026;-72
2021/10/22 00:18:07;;;;;;;6.15;1.45;;;;;;;7.53;100.00;95651.91;1026071;28;20060;-71
2021/10/22 00:18:38;;;;;;;4.68;1.30;;;;;;;7.55;100.00;95658.47;1023281;29;20278;-71
2021/10/22 00:19:08;;;;;;;5.10;1.42;;;;;;;7.55;100.00;95660.28;1022727;29;20685;-70
2021/10/22 00:19:39;;;;;;;5.38;1.98;;;;;;;7.49;100.00;95653.44;1023101;28;20499;-71
2021/10/22 00:20:09;;;;;;;3.70;1.50;;;;;;;7.55;100.00;95655.84;1020322;28;20035;-72
2021/10/22 00:20:40;;;;;;;4.20;1.17;;;;;;;7.47;100.00;95648.44;1030749;28;20026;-70
2021/10/22 00:21:10;;;;;;;4.55;1.23;;;;;;;7.55;100.00;95658.47;1031299;28;20045;-71
2021/10/22 00:21:41;;;;;;;5.68;1.65;;;;;;;7.56;100.00;95667.06;1028969;28;20026;-72
2021/10/22 00:22:12;;;;;;;6.05;1.17;;;;;;;7.55;100.00;95661.06;1026994;28;20629;-71
2021/10/22 00:22:42;;;;;;;3.83;1.50;;;;;;;7.46;100.00;95651.31;1029523;28;20046;-71
2021/10/22 00:23:13;;;;;;;4.22;1.38;;;;;;;7.48;100.00;95654.47;1031125;28;20429;-70
2021/10/22 00:23:43;;;;;;;5.63;1.40;;;;;;;7.55;100.00;95657.69;1035125;28;20033;-71
2021/10/22 00:24:13;;;;;;;4.97;1.08;;;;;;;7.54;100.00;95658.69;1037562;28;20479;-71
2021/10/22 00:24:44;;;;;;;4.10;1.35;;;;;;;7.54;100.00;95664.72;1031079;28;20081;-71
2021/10/22 00:25:15;;;;;;;5.93;1.30;;;;;;;7.55;100.00;95661.06;1035357;28;20056;-71
2021/10/22 00:25:45;;;;;;;1.50;1.02;;;;;;;7.50;100.00;95641.94;1035205;28;20034;-71
2021/10/22 00:26:16;;;;;;;4.25;1.73;;;;;;;7.55;100.00;95661.06;1035166;28;20038;-71
2021/10/22 00:26:47;;;;;;;4.43;1.17;;;;;;;7.54;100.00;95653.47;1039519;28;20055;-70
2021/10/22 00:27:17;;;;;;;3.95;1.23;;;;;;;7.54;100.00;95656.06;1043357;28;20772;-70
2021/10/22 00:27:48;;;;;;;4.25;1.10;;;;;;;7.49;100.00;95651.59;1042757;28;20017;-71
2021/10/22 00:28:18;;;;;;;3.40;1.15;;;;;;;7.54;100.00;95656.06;1034883;28;20028;-71
2021/10/22 00:28:49;;;;;;;5.90;1.35;;;;;;;7.55;100.00;95662.91;1035107;28;20041;-71
2021/10/22 00:29:19;;;;;;;6.18;2.03;;;;;;;7.55;100.00;95660.28;1035433;28;20029;-71
2021/10/22 00:29:50;;;;;;;6.88;1.00;;;;;;;7.56;100.00;95660.03;1035323;28;20033;-71
2021/10/22 00:30:20;;;;;;;4.45;1.38;;;;;;;7.47;100.00;95651.03;1047258;28;20020;-71
2021/10/22 00:30:51;;;;;;;4.63;1.17;;;;;;;7.56;100.00;95667.06;1043410;28;20504;-71
2021/10/22 00:31:21;;;;;;;2.70;1.05;;;;;;;7.58;100.00;95665.03;1043288;28;20016;-70
2021/10/22 00:31:51;;;;;;;3.63;1.20;;;;;;;7.58;100.00;95670.25;1038563;28;20013;-69
2021/10/22 00:32:22;;;;;;;3.00;1.00;;;;;;;7.52;100.00;95666.78;1038413;28;20024;-71
2021/10/22 00:32:52;;;;;;;2.88;1.42;;;;;;;7.53;100.00;95660.50;1039088;28;20021;-71
2021/10/22 00:33:23;;;;;;;2.85;1.17;;;;;;;7.58;100.00;95672.84;1038755;28;20517;-71
2021/10/22 00:33:53;;;;;;;5.60;1.25;;;;;;;7.60;100.00;95672.59;1035825;28;20040;-70
2021/10/22 00:34:25;;;;;;;2.88;1.23;;;;;;;7.59;100.00;95671.81;1026686;28;20027;-71
2021/10/22 00:34:55;;;;;;;8.40;1.45;;;;;;;7.61;100.00;95672.34;1031041;28;20022;-72
2021/10/22 00:35:26;;;;;;;4.53;1.27;;;;;;;7.62;100.00;95670.53;1031199;28;20269;-71
2021/10/22 00:35:56;;;;;;;4.25;1.20;;;;;;;7.62;100.00;95675.75;1035385;28;20025;-71
2021/10/22 00:36:27;;;;;;;3.53;1.40;;;;;;;7.63;100.00;95678.13;1039132;28;20025;-72
2021/10/22 00:36:58;;;;;;;4.30;1.35;;;;;;;7.62;100.00;95679.16;1039167;28;20025;-71
2021/10/22 00:37:28;;;;;;;5.72;1.20;;;;;;;7.65;100.00;95678.66;1031246;28;20037;-72
2021/10/22 00:37:59;;;;;;;5.10;2.05;;;;;;;7.66;100.00;95677.63;1026391;28;20269;-70
2021/10/22 00:38:29;;;;;;;8.85;1.42;;;;;;;7.66;100.00;95684.69;1027076;28;20042;-71
2021/10/22 00:39:00;;;;;;;5.28;1.88;;;;;;;7.67;100.00;95679.19;1022975;29;20422;-70
2021/10/22 00:39:31;;;;;;;3.85;1.40;;;;;;;7.65;100.00;95685.72;1023274;28;20044;-71
2021/10/22 00:40:02;;;;;;;4.30;1.52;;;;;;;7.65;100.00;95681.28;1027070;28;20504;-71
2021/10/22 00:40:32;;;;;;;5.20;1.80;;;;;;;7.66;100.00;95688.06;1027448;28;20105;-71
2021/10/22 00:41:04;;;;;;;6.30;1.83;;;;;;;7.63;100.00;95683.34;1035062;28;20972;-71
2021/10/22 00:41:36;;;;;;;6.43;1.83;;;;;;;7.65;100.00;95691.72;1029997;28;20045;-71
2021/10/22 00:42:07;;;;;;;8.60;2.50;;;;;;;7.62;100.00;95681.78;1022676;29;20283;-71
2021/10/22 00:42:38;;;;;;;10.40;1.98;;;;;;;7.67;100.00;95694.88;1031585;28;20297;-71
2021/10/22 00:43:08;;;;;;;5.25;2.38;;;;;;;7.65;100.00;95691.72;1035223;28;20335;-71
2021/10/22 00:43:38;;;;;;;5.40;2.03;;;;;;;7.63;100.00;95688.56;1029369;28;20076;-72
2021/10/22 00:44:09;;;;;;;7.03;2.35;;;;;;;7.61;100.00;95687.22;1023166;28;20027;-71
2021/10/22 00:44:40;;;;;;;7.10;2.35;;;;;;;7.54;100.00;95672.56;1026856;28;20035;-71
2021/10/22 00:45:10;;;;;;;8.15;2.25;;;;;;;7.65;100.00;95689.13;1031216;28;20020;-71
2021/10/22 00:45:41;;;;;;;4.32;2.00;;;;;;;7.62;100.00;95694.81;1031718;28;20061;-72
2021/10/22 00:46:11;;;;;;;8.88;2.42;;;;;;;7.53;100.00;95691.06;1035506;28;20060;-71
2021/10/22 00:46:42;;;;;;;7.10;2.60;;;;;;;7.57;100.00;95689.53;1031420;28;20415;-71
2021/10/22 00:47:13;;;;;;;5.32;2.20;;;;;;;7.58;100.00;95688.53;1031383;28;20472;-70
2021/10/22 00:47:43;;;;;;;7.72;2.55;;;;;;;7.58;100.00;95701.56;1030651;28;20019;-70
2021/10/22 00:48:14;;;;;;;9.07;2.90;;;;;;;7.60;100.00;95702.09;1031348;28;20026;-72
2021/10/22 00:48:44;;;;;;;9.52;3.08;;;;;;;7.61;100.00;95702.88;1035435;28;20431;-71
2021/10/22 00:49:14;;;;;;;8.85;2.88;;;;;;;7.59;100.00;95699.75;1035193;28;20361;-71
2021/10/22 00:49:45;;;;;;;6.63;2.42;;;;;;;7.63;100.00;95704.22;1031466;28;20875;-72
2021/10/22 00:50:16;;;;;;;6.68;2.45;;;;;;;7.63;100.00;95700.84;1035435;28;20022;-71
2021/10/22 00:50:50;;;;;;;7.80;2.70;;;;;;;7.64;100.00;95703.19;1035262;28;20033;-72
2021/10/22 00:51:21;;;;;;;7.15;2.60;;;;;;;7.64;100.00;95700.56;1031849;28;20026;-71
2021/10/22 00:51:51;;;;;;;4.22;2.60;;;;;;;7.61;100.00;95690.63;1035357;28;20265;-71
2021/10/22 00:52:24;;;;;;;9.38;3.22;;;;;;;7.55;100.00;95684.56;1031715;28;20022;-71
2021/10/22 00:52:54;;;;;;;4.65;3.05;;;;;;;7.60;100.00;95688.25;1032169;28;20026;-71
2021/10/22 00:53:25;;;;;;;10.63;2.72;;;;;;;7.62;100.00;95694.81;1030916;28;20272;-71
2021/10/22 00:53:55;;;;;;;9.43;2.90;;;;;;;7.62;100.00;95689.59;1027266;28;20049;-71
2021/10/22 00:54:26;;;;;;;8.60;2.90;;;;;;;7.62;100.00;95694.03;1023131;28;20469;-71
2021/10/22 00:54:57;;;;;;;7.32;3.50;;;;;;;7.60;100.00;95699.50;1027433;28;20455;-72
2021/10/22 00:55:29;;;;;;;7.22;3.40;;;;;;;7.60;100.00;95699.50;1031247;28;20089;-70
2021/10/22 00:55:59;;;;;;;7.07;3.00;;;;;;;7.60;100.00;95699.50;1027800;28;20326;-70
2021/10/22 00:56:30;;;;;;;6.25;2.60;;;;;;;7.51;100.00;95693.13;1035196;28;20312;-71
2021/10/22 00:57:01;;;;;;;7.60;3.00;;;;;;;7.57;100.00;95700.75;1031739;28;20023;-70
2021/10/22 00:57:31;;;;;;;6.57;3.17;;;;;;;7.57;100.00;95694.75;1030982;28;20010;-71
2021/10/22 00:58:02;;;;;;;5.13;3.20;;;;;;;7.54;100.00;95692.63;1022623;29;20078;-71
2021/10/22 00:58:34;;;;;;;6.32;3.05;;;;;;;7.60;100.00;95693.47;1023229;29;20011;-72
2021/10/22 00:59:05;;;;;;;6.85;3.65;;;;;;;7.58;100.00;95701.56;1031184;28;20531;-71
2021/10/22 00:59:36;;;;;;;8.60;3.47;;;;;;;7.59;100.00;95707.59;1027256;28;20349;-72
2021/10/22 01:00:07;;;;;;;8.38;3.33;;;;;;;7.56;100.00;95698.41;1023078;29;20283;-71
2021/10/22 01:00:37;;;;;;;5.30;2.88;;;;;;;7.60;100.00;95702.09;1027484;28;20477;-72
2021/10/22 01:01:08;;;;;;;8.15;2.97;;;;;;;7.54;100.00;95695.25;1032033;28;20269;-70
2021/10/22 01:01:39;;;;;;;7.80;2.97;;;;;;;7.56;100.00;95698.41;1030879;28;20464;-71
2021/10/22 01:02:09;;;;;;;7.78;3.20;;;;;;;7.59;100.00;95703.16;1027773;28;20061;-72
2021/10/22 01:02:40;;;;;;;8.07;3.78;;;;;;;7.53;100.00;95694.47;1031020;28;20014;-71
2021/10/22 01:03:10;;;;;;;12.75;3.50;;;;;;;7.58;100.00;95706.81;1027166;28;20038;-72
2021/10/22 01:03:41;;;;;;;6.40;2.90;;;;;;;7.58;100.00;95698.97;1031270;28;20018;-71
2021/10/22 01:04:11;;;;;;;6.15;3.00;;;;;;;7.58;100.00;95704.19;1035374;28;20010;-72
2021/10/22 01:04:42;;;;;;;7.68;2.65;;;;;;;7.60;100.00;95702.09;1039219;28;20013;-71
2021/10/22 01:05:15;;;;;;;7.30;2.78;;;;;;;7.57;100.00;95705.19;1035551;28;20838;-72
2021/10/22 01:05:45;;;;;;;5.95;2.78;;;;;;;7.52;100.00;95698.09;1039092;28;20288;-71
2021/10/22 01:06:16;;;;;;;8.63;3.13;;;;;;;7.52;100.00;95700.72;1035362;28;20785;-72
2021/10/22 01:06:46;;;;;;;7.28;2.90;;;;;;;7.48;100.00;95691.03;1031005;28;20644;-71
2021/10/22 01:07:17;;;;;;;4.95;2.97;;;;;;;7.54;100.00;95705.69;1027242;28;20007;-71
2021/10/22 01:07:47;;;;;;;6.97;2.75;;;;;;;7.53;100.00;95704.91;1022546;28;20018;-71
2021/10/22 01:08:18;;;;;;;6.13;3.00;;;;;;;7.46;100.00;95693.06;1026615;28;20734;-71
2021/10/22 01:08:48;;;;;;;5.28;2.53;;;;;;;7.53;100.00;95702.28;1023170;29;20015;-71
2021/10/22 01:09:19;;;;;;;6.47;3.00;;;;;;;7.53;100.00;95704.13;1027165;28;20022;-71
2021/10/22 01:09:49;;;;;;;8.27;3.15;;;;;;;7.56;100.00;95704.41;1023080;29;20070;-71
2021/10/22 01:10:20;;;;;;;5.97;2.72;;;;;;;7.55;100.00;95707.28;1027130;28;20015;-71
2021/10/22 01:10:50;;;;;;;10.95;3.65;;;;;;;7.51;100.00;95695.72;1027123;28;20085;-71
2021/10/22 01:11:21;;;;;;;6.50;3.45;;;;;;;7.49;100.00;95695.19;1027306;28;20014;-71
2021/10/22 01:11:51;;;;;;;8.27;3.08;;;;;;;7.54;100.00;95700.47;1023410;28;20051;-71
2021/10/22 01:12:21;;;;;;;10.45;3.55;;;;;;;7.53;100.00;95711.94;1022856;29;20023;-71
2021/10/22 01:12:52;;;;;;;7.35;2.90;;;;;;;7.52;100.00;95703.34;1027150;28;20019;-71
2021/10/22 01:13:23;;;;;;;6.97;3.10;;;;;;;7.50;100.00;95704.59;1031156;28;20025;-71
2021/10/22 01:13:53;;;;;;;5.80;2.85;;;;;;;7.53;100.00;95707.50;1027223;28;20101;-71
2021/10/22 01:14:24;;;;;;;6.05;3.22;;;;;;;7.51;100.00;95706.16;1027439;28;20779;-71
2021/10/22 01:14:54;;;;;;;7.28;3.25;;;;;;;7.46;100.00;95703.50;1031163;28;20015;-71
2021/10/22 01:15:25;;;;;;;5.25;2.90;;;;;;;7.49;100.00;95703.03;1027154;28;20014;-72
2021/10/22 01:15:55;;;;;;;7.70;3.33;;;;;;;7.54;100.00;95710.91;1023241;29;20026;-72
2021/10/22 01:16:26;;;;;;;7.07;3.05;;;;;;;7.55;100.00;95708.06;1022821;29;20015;-71
2021/10/22 01:16:56;;;;;;;4.60;2.72;;;;;;;7.54;100.00;95711.72;1027235;28;20567;-71
2021/10/22 01:17:31;;;;;;;5.13;2.90;;;;;;;7.49;100.00;95708.25;1027227;28;20377;-71
2021/10/22 01:18:02;;;;;;;4.43;2.55;;;;;;;7.45;100.00;95713.16;1035063;28;20682;-71
2021/10/22 01:18:32;;;;;;;6.75;3.60;;;;;;;7.39;100.00;95698.47;1039474;28;20271;-71
2021/10/22 01:19:03;;;;;;;6.13;3.70;;;;;;;7.42;100.00;95715.47;1031804;28;20101;-71
2021/10/22 01:19:34;;;;;;;7.63;3.38;;;;;;;7.45;100.00;95718.41;1027417;28;20022;-73
2021/10/22 01:20:06;;;;;;;6.50;3.42;;;;;;;7.45;100.00;95712.38;1031249;28;20030;-70
2021/10/22 01:20:39;;;;;;;7.10;2.97;;;;;;;7.43;100.00;95714.44;1027789;28;20092;-72
2021/10/22 01:21:11;;;;;;;10.27;3.67;;;;;;;7.44;100.00;95716.00;1028657;28;21100;-72
2021/10/22 01:21:42;;;;;;;5.65;3.40;;;;;;;7.38;100.00;95706.53;1026976;28;20281;-71
2021/10/22 01:22:14;;;;;;;5.45;3.03;;;;;;;7.35;100.00;95699.22;1022963;29;20354;-71
2021/10/22 01:22:45;;;;;;;8.02;3.90;;;;;;;7.40;100.00;95707.09;1023386;28;20729;-71
2021/10/22 01:23:15;;;;;;;7.63;3.90;;;;;;;7.47;100.00;95715.53;1023498;28;20262;-71
2021/10/22 01:23:47;;;;;;;6.85;3.45;;;;;;;7.40;100.00;95697.44;1027610;28;20265;-70
2021/10/22 01:24:17;;;;;;;7.55;3.30;;;;;;;7.46;100.00;95709.53;1027709;28;20069;-71
2021/10/22 01:24:49;;;;;;;7.38;3.72;;;;;;;7.47;100.00;95710.31;1023371;28;20310;-72
2021/10/22 01:25:21;;;;;;;11.18;3.95;;;;;;;7.47;100.00;95715.53;1027128;28;20406;-71
2021/10/22 01:25:52;;;;;;;6.60;3.70;;;;;;;7.44;100.00;95716.00;1027478;28;20401;-70
2021/10/22 01:26:23;;;;;;;6.38;3.38;;;;;;;7.48;100.00;95717.13;1027419;28;20281;-71
2021/10/22 01:26:53;;;;;;;7.95;3.53;;;;;;;7.45;100.00;95712.38;1031494;28;20033;-71
2021/10/22 01:27:24;;;;;;;4.93;2.67;;;;;;;7.44;100.00;95716.78;1027305;28;20262;-71
2021/10/22 01:27:55;;;;;;;5.68;3.47;;;;;;;7.43;100.00;95714.44;1030427;28;20022;-71
2021/10/22 01:28:25;;;;;;;3.80;2.67;;;;;;;7.42;100.00;95718.09;1027059;28;20097;-71
2021/10/22 01:28:58;;;;;;;9.52;3.55;;;;;;;7.32;100.00;95709.09;1031014;28;20023;-71
2021/10/22 01:29:29;;;;;;;9.77;3.58;;;;;;;7.38;100.00;95717.78;1031314;28;20018;-71
2021/10/22 01:29:59;;;;;;;4.32;3.17;;;;;;;7.40;100.00;95714.91;1027240;28;20748;-70
2021/10/22 01:30:31;;;;;;;6.88;3.40;;;;;;;7.40;100.00;95717.53;1026926;28;20413;-70
2021/10/22 01:31:01;;;;;;;6.30;3.85;;;;;;;7.39;100.00;95721.19;1027668;28;20574;-71
2021/10/22 01:31:32;;;;;;;5.53;3.70;;;;;;;7.38;100.00;95720.41;1027289;28;20262;-71
2021/10/22 01:32:03;;;;;;;10.02;3.75;;;;;;;7.33;100.00;95715.88;1031469;28;20023;-71
2021/10/22 01:32:34;;;;;;;10.00;4.05;;;;;;;7.32;100.00;95711.72;1039368;28;20037;-71
2021/10/22 01:33:06;;;;;;;5.60;3.83;;;;;;;7.37;100.00;95716.19;1034846;28;20279;-71
2021/10/22 01:33:37;;;;;;;9.10;3.83;;;;;;;7.26;100.00;95710.06;1035313;28;20264;-71
2021/10/22 01:34:08;;;;;;;8.23;4.53;;;;;;;7.35;100.00;95714.88;1026833;28;20330;-71
2021/10/22 01:34:38;;;;;;;8.30;4.43;;;;;;;7.29;100.00;95714.78;1035048;28;20257;-71
2021/10/22 01:35:09;;;;;;;7.72;4.82;;;;;;;7.33;100.00;95721.09;1027113;28;20293;-71
2021/10/22 01:35:39;;;;;;;7.75;4.18;;;;;;;7.41;100.00;95721.72;1018995;29;20534;-71
2021/10/22 01:36:10;;;;;;;5.68;4.22;;;;;;;7.41;100.00;95726.94;1022958;29;20035;-71
2021/10/22 01:36:41;;;;;;;9.30;4.97;;;;;;;7.38;100.00;95714.38;1023178;28;20039;-71
2021/10/22 01:37:11;;;;;;;10.75;4.82;;;;;;;7.38;100.00;95717.78;1027216;28;20023;-70
2021/10/22 01:37:42;;;;;;;6.72;3.83;;;;;;;7.38;100.00;95716.97;1034800;28;20088;-70
2021/10/22 01:38:13;;;;;;;9.80;4.65;;;;;;;7.39;100.00;95718.56;1034934;28;20101;-70
2021/10/22 01:38:44;;;;;;;13.15;5.30;;;;;;;7.38;100.00;95715.19;1039126;28;20112;-70
2021/10/22 01:39:14;;;;;;;5.13;4.20;;;;;;;7.38;100.00;95723.00;1035158;28;20273;-71
2021/10/22 01:39:44;;;;;;;5.93;4.25;;;;;;;7.36;100.00;95726.88;1031075;28;20027;-70
2021/10/22 01:40:15;;;;;;;6.93;4.28;;;;;;;7.31;100.00;95722.41;1035095;28;20033;-71
2021/10/22 01:40:46;;;;;;;8.82;4.60;;;;;;;7.30;100.00;95720.81;1027097;28;20030;-70
2021/10/22 01:41:17;;;;;;;6.45;3.95;;;;;;;7.32;100.00;95723.97;1023151;28;20610;-70
2021/10/22 01:41:48;;;;;;;6.05;4.63;;;;;;;7.29;100.00;95720.03;1027152;28;20031;-70
2021/10/22 01:42:18;;;;;;;6.72;4.53;;;;;;;7.27;100.00;95727.28;1027380;28;20270;-71
2021/10/22 01:42:49;;;;;;;10.75;4.65;;;;;;;7.25;100.00;95721.53;1034907;28;20038;-70
2021/10/22 01:43:20;;;;;;;11.38;5.20;;;;;;;7.29;100.00;95733.06;1031253;28;20050;-70
2021/10/22 01:43:53;;;;;;;11.00;5.72;;;;;;;7.30;100.00;95724.19;1030947;28;20380;-71
2021/10/22 01:44:24;;;;;;;10.18;5.30;;;;;;;7.28;100.00;95728.88;1025374;28;20269;-70
2021/10/22 01:44:54;;;;;;;15.93;5.65;;;;;;;7.21;100.00;95715.22;1025155;28;20274;-70
2021/10/22 01:45:25;;;;;;;10.40;5.13;;;;;;;7.28;100.00;95726.28;1025026;28;20413;-70
2021/10/22 01:45:56;;;;;;;9.02;5.20;;;;;;;7.25;100.00;95724.16;1027024;28;20034;-71
2021/10/22 01:46:27;;;;;;;10.68;5.35;;;;;;;7.25;100.00;95729.38;1032141;28;20038;-71
2021/10/22 01:46:57;;;;;;;10.93;5.53;;;;;;;7.27;100.00;95729.91;1031100;28;20537;-71
2021/10/22 01:47:28;;;;;;;7.72;5.85;;;;;;;7.28;100.00;95728.88;1030778;28;20277;-70
2021/10/22 01:47:58;;;;;;;8.80;4.70;;;;;;;7.24;100.00;95726.97;1029061;28;20566;-70
2021/10/22 01:48:29;;;;;;;9.68;5.25;;;;;;;7.24;100.00;95725.19;1022480;29;20497;-71
2021/10/22 01:48:59;;;;;;;9.38;5.65;;;;;;;7.23;100.00;95728.03;1023040;28;20046;-68
2021/10/22 01:49:30;;;;;;;12.23;6.20;;;;;;;7.23;100.00;95720.97;1030730;28;20073;-70
2021/10/22 01:50:00;;;;;;;10.25;5.88;;;;;;;7.25;100.00;95724.16;1030807;28;20124;-70
2021/10/22 01:50:31;;;;;;;12.32;5.50;;;;;;;7.20;100.00;95720.66;1030650;28;20077;-70
2021/10/22 01:51:01;;;;;;;10.13;5.68;;;;;;;7.21;100.00;95723.06;1026548;28;20039;-71
2021/10/22 01:51:32;;;;;;;8.98;6.07;;;;;;;7.25;100.00;95728.59;1026792;28;20027;-71
2021/10/22 01:52:02;;;;;;;9.93;5.88;;;;;;;7.21;100.00;95720.44;1026836;28;20057;-71
2021/10/22 01:52:33;;;;;;;12.65;6.38;;;;;;;7.20;100.00;95721.47;1026752;28;20198;-71
2021/10/22 01:53:03;;;;;;;7.10;5.25;;;;;;;7.26;100.00;95733.53;1030814;28;20035;-71
2021/10/22 01:53:34;;;;;;;8.73;5.18;;;;;;;7.24;100.00;95727.78;1030625;28;20027;-71
2021/10/22 01:54:04;;;;;;;10.35;4.93;;;;;;;7.06;100.00;95699.34;1030882;28;20046;-70
2021/10/22 01:54:35;;;;;;;11.15;5.50;;;;;;;7.23;100.00;95726.19;1030745;28;20030;-71
2021/10/22 01:55:06;;;;;;;9.05;5.40;;;;;;;7.26;100.00;95730.94;1030578;28;20034;-71
2021/10/22 01:55:37;;;;;;;7.63;5.00;;;;;;;7.25;100.00;95726.75;1026837;28;20146;-71
2021/10/22 01:56:07;;;;;;;11.05;4.82;;;;;;;7.27;100.00;95731.72;1026784;28;21146;-71
2021/10/22 01:56:38;;;;;;;10.65;4.70;;;;;;;7.17;100.00;95711.50;1026652;28;20864;-71
2021/10/22 01:57:10;;;;;;;9.73;5.57;;;;;;;7.22;100.00;95718.63;1030806;28;20515;-71
2021/10/22 01:57:41;;;;;;;13.82;6.15;;;;;;;7.28;100.00;95734.09;1022018;29;20465;-71
2021/10/22 01:58:12;;;;;;;10.18;5.40;;;;;;;7.27;100.00;95729.91;1026723;28;20269;-72
2021/10/22 01:58:42;;;;;;;8.98;5.28;;;;;;;7.28;100.00;95728.88;1026974;28;20714;-70
2021/10/22 01:59:12;;;;;;;7.70;5.35;;;;;;;7.25;100.00;95729.38;1027114;28;20054;-71
2021/10/22 01:59:47;;;;;;;13.25;5.80;;;;;;;7.25;100.00;95729.38;1026899;28;20042;-72
2021/10/22 02:00:17;;;;;;;5.65;4.80;;;;;;;7.30;100.00;95726.81;1023163;28;20043;-71
2021/10/22 02:00:48;;;;;;;10.50;5.45;;;;;;;7.32;100.00;95735.19;1023737;28;20684;-71
2021/10/22 02:01:18;;;;;;;4.53;3.63;;;;;;;7.26;100.00;95733.53;1023293;28;20453;-70
2021/10/22 02:01:48;;;;;;;7.60;3.38;;;;;;;7.23;100.00;95728.03;1023282;28;20031;-71
2021/10/22 02:02:19;;;;;;;7.65;3.50;;;;;;;7.23;100.00;95733.25;1022918;28;20039;-70
2021/10/22 02:02:49;;;;;;;5.00;3.00;;;;;;;7.16;100.00;95716.97;1026711;28;20062;-71
2021/10/22 02:03:20;;;;;;;5.50;2.58;;;;;;;7.16;100.00;95715.16;1030656;28;20022;-71
2021/10/22 02:03:50;;;;;;;5.20;2.50;;;;;;;7.18;100.00;95727.97;1030631;28;20026;-70
2021/10/22 02:04:21;;;;;;;5.35;3.10;;;;;;;7.22;100.00;95729.84;1026515;28;20027;-70
2021/10/22 02:04:51;;;;;;;4.07;1.95;;;;;;;7.20;100.00;95725.88;1030725;28;20037;-71
2021/10/22 02:05:21;;;;;;;5.10;2.60;;;;;;;7.14;100.00;95732.84;1026873;28;20026;-71
2021/10/22 02:05:52;;;;;;;4.10;2.60;;;;;;;7.15;100.00;95729.22;1026915;28;20022;-71
2021/10/22 02:06:23;;;;;;;4.40;2.50;;;;;;;7.19;100.00;95732.16;1034616;28;20041;-71
2021/10/22 02:06:53;;;;;;;2.08;1.80;;;;;;;7.16;100.00;95725.59;1034969;28;20030;-71
2021/10/22 02:07:23;;;;;;;3.33;1.90;;;;;;;7.13;100.00;95726.06;1038876;28;20026;-71
2021/10/22 02:07:54;;;;;;;3.25;1.70;;;;;;;7.10;100.00;95726.53;1034176;28;20026;-71
2021/10/22 02:08:24;;;;;;;4.57;2.05;;;;;;;7.09;100.00;95717.94;1030497;28;20030;-71
2021/10/22 02:08:55;;;;;;;3.35;2.05;;;;;;;7.12;100.00;95721.88;1030686;28;20038;-71
2021/10/22 02:09:25;;;;;;;2.42;1.90;;;;;;;7.09;100.00;95727.59;1026860;28;20101;-71
2021/10/22 02:09:56;;;;;;;3.17;1.85;;;;;;;7.04;100.00;95717.06;1034915;28;20460;-70
2021/10/22 02:10:27;;;;;;;3.17;2.13;;;;;;;7.02;100.00;95725.13;1034555;28;20084;-71
2021/10/22 02:10:57;;;;;;;3.53;1.95;;;;;;;7.06;100.00;95721.03;1026762;28;20397;-71
2021/10/22 02:11:28;;;;;;;3.95;2.28;;;;;;;7.06;100.00;95725.44;1022547;29;20413;-71
2021/10/22 02:11:59;;;;;;;5.15;2.50;;;;;;;7.06;100.00;95722.84;1023020;28;20038;-70
2021/10/22 02:12:29;;;;;;;3.25;1.65;;;;;;;7.03;100.00;95728.53;1022992;28;20263;-71
2021/10/22 02:13:00;;;;;;;6.97;2.05;;;;;;;7.01;100.00;95733.22;1030925;28;20041;-70
2021/10/22 02:13:30;;;;;;;1.90;1.27;;;;;;;6.97;100.00;95732.88;1035022;28;20060;-71
2021/10/22 02:14:01;;;;;;;2.90;1.10;;;;;;;6.93;100.00;95726.56;1034657;28;20042;-70
2021/10/22 02:14:32;;;;;;;2.47;1.10;;;;;;;6.94;100.00;95730.78;1030842;28;20030;-70
2021/10/22 02:15:03;;;;;;;1.88;1.10;;;;;;;6.96;100.00;95741.75;1031030;28;20097;-71
2021/10/22 02:15:33;;;;;;;3.63;1.20;;;;;;;6.96;100.00;95735.75;1038807;28;20302;-71
2021/10/22 02:16:04;;;;;;;1.98;1.23;;;;;;;6.95;100.00;95737.56;1034893;28;20026;-70
2021/10/22 02:16:35;;;;;;;1.90;1.35;;;;;;;6.96;100.00;95738.34;1030528;28;20184;-71
2021/10/22 02:17:05;;;;;;;1.70;1.27;;;;;;;6.87;100.00;95730.13;1030766;28;20096;-70
2021/10/22 02:17:36;;;;;;;1.85;1.30;;;;;;;6.94;100.00;95737.78;1027140;28;20105;-72
2021/10/22 02:18:06;;;;;;;3.33;1.60;;;;;;;6.95;100.00;95744.59;1030103;28;20108;-71
2021/10/22 02:18:37;;;;;;;3.35;1.20;;;;;;;6.99;100.00;95737.88;1030572;28;20023;-71
2021/10/22 02:19:07;;;;;;;2.50;1.35;;;;;;;6.90;100.00;95729.66;1030689;28;20054;-71
2021/10/22 02:19:38;;;;;;;3.22;1.02;;;;;;;6.98;100.00;95738.91;1030657;28;20336;-71
2021/10/22 02:20:08;;;;;;;1.60;1.00;;;;;;;6.96;100.00;95746.19;1034872;28;20022;-71
2021/10/22 02:20:39;;;;;;;4.78;1.35;;;;;;;6.96;100.00;95746.19;1030374;28;20026;-70
2021/10/22 02:21:09;;;;;;;1.40;1.20;;;;;;;6.94;100.00;95737.78;1027066;28;20039;-71
2021/10/22 02:21:40;;;;;;;12.95;1.67;;;;;;;6.95;100.00;95739.38;1034890;28;20029;-68
2021/10/22 02:22:10;;;;;;;2.20;1.38;;;;;;;6.91;100.00;95740.88;1030711;28;20066;-71
2021/10/22 02:22:41;;;;;;;1.75;1.30;;;;;;;6.95;100.00;95752.44;1026487;28;20023;-71
2021/10/22 02:23:11;;;;;;;1.85;1.08;;;;;;;6.93;100.00;95741.44;1026566;28;20022;-71
2021/10/22 02:23:42;;;;;;;5.28;1.80;;;;;;;6.97;100.00;95750.34;1022551;29;20035;-71
2021/10/22 02:24:13;;;;;;;3.40;1.88;;;;;;;6.96;100.00;95752.19;1026897;28;20049;-70